Terminal Aerodrome Forecast
Issued by NWS

Current Version | Previous Version | Text Only | Print | Product List | Glossary On
Versions: 1 2 3 4 5 6 7 8 9 10 11 12 13 14 15
000
FTUS44 KLZK 221723
TAFBPK
TAF
KBPK 221723Z 2218/2318 13004KT P6SM VCTS SCT035CB BKN100
      TEMPO 2218/2220 BKN025CB
     FM230100 VRB02KT P6SM SCT100 SCT250
     FM231000 00000KT 5SM BR SCT100 BKN250
      TEMPO 2310/2313 2SM BR BKN005
     FM231400 12005KT P6SM VCTS SCT025CB BKN100=

USA.gov is the U.S. government's official web portal to all federal, state and local government web resources and services.